Time;durP1;ratioP1;P1;durP2;ratioP2;P2;SDS_P1;SDS_P2;PMS_P1;PMS_P2;Temp;Humidity;BMP_temperature;BMP_pressure;BME280_temperature;BME280_humidity;BME280_pressure;Samples;Min_cycle;Max_cycle;Signal;HPM_P1;HPM_P2
2023/09/27 00:00:20;;;;;;;1999.90;999.90;;;15.80;99.90;;;;;;5089829;28;20039;-66
2023/09/27 00:02:46;;;;;;;1999.90;999.90;;;15.80;99.90;;;;;;5100276;28;20027;-66
2023/09/27 00:05:13;;;;;;;1999.90;999.90;;;15.80;99.90;;;;;;5104796;28;20023;-66
2023/09/27 00:07:40;;;;;;;1999.90;999.90;;;15.80;99.90;;;;;;5109474;28;20474;-67
2023/09/27 00:10:09;;;;;;;1999.90;999.90;;;15.80;99.90;;;;;;5100137;28;20038;-66
2023/09/27 00:12:35;;;;;;;1999.90;999.90;;;15.80;99.90;;;;;;5092654;28;20015;-66
2023/09/27 00:15:02;;;;;;;1999.90;999.90;;;15.80;99.90;;;;;;5098190;28;20035;-67
2023/09/27 00:17:28;;;;;;;1999.90;999.90;;;15.70;99.90;;;;;;5106909;28;20035;-66
2023/09/27 00:19:55;;;;;;;;;;;15.70;99.90;;;;;;5086740;28;20323;-66
2023/09/27 00:22:21;;;;;;;1999.90;999.90;;;15.60;99.90;;;;;;5108868;28;20226;-77
2023/09/27 00:24:47;;;;;;;1999.90;999.90;;;15.60;99.90;;;;;;5104133;28;20052;-66
2023/09/27 00:27:13;;;;;;;1999.90;999.90;;;15.50;99.90;;;;;;5100810;28;20414;-66
2023/09/27 00:29:39;;;;;;;1999.90;999.90;;;15.50;99.90;;;;;;5101932;28;20057;-66
2023/09/27 00:32:05;;;;;;;1999.90;999.90;;;15.50;99.90;;;;;;5094589;28;20149;-67
2023/09/27 00:34:31;;;;;;;1999.90;999.90;;;15.40;99.90;;;;;;5110186;28;20034;-66
2023/09/27 00:36:57;;;;;;;1999.90;999.90;;;15.40;99.90;;;;;;5099530;28;20103;-66
2023/09/27 00:39:24;;;;;;;1999.90;999.90;;;15.30;99.90;;;;;;5112563;28;20119;-66
2023/09/27 00:41:49;;;;;;;1999.90;999.90;;;15.40;99.90;;;;;;5102136;28;20388;-66
2023/09/27 00:44:15;;;;;;;1999.90;999.90;;;15.30;99.90;;;;;;5104023;28;20115;-66
2023/09/27 00:46:42;;;;;;;1999.90;999.90;;;15.30;99.90;;;;;;5096632;28;20536;-66
2023/09/27 00:49:08;;;;;;;1999.90;999.90;;;15.30;99.90;;;;;;5098238;28;20055;-67
2023/09/27 00:51:35;;;;;;;1999.90;999.90;;;15.30;99.90;;;;;;5104438;28;20436;-66
2023/09/27 00:54:01;;;;;;;1999.90;999.90;;;15.20;99.90;;;;;;5108158;28;20369;-67
2023/09/27 00:56:28;;;;;;;1999.90;999.90;;;15.20;99.90;;;;;;5104229;28;20410;-66
2023/09/27 00:58:55;;;;;;;1999.90;999.90;;;15.10;99.90;;;;;;5106700;28;20024;-66
2023/09/27 01:01:22;;;;;;;1999.90;999.90;;;15.10;99.90;;;;;;5096739;28;20415;-66
2023/09/27 01:03:49;;;;;;;1999.90;999.90;;;15.20;99.90;;;;;;5103805;28;20032;-66
2023/09/27 01:06:15;;;;;;;;;;;15.20;99.90;;;;;;5102870;28;20020;-67
2023/09/27 01:08:41;;;;;;;1999.90;999.90;;;15.10;99.90;;;;;;5101429;28;20330;-66
2023/09/27 01:11:07;;;;;;;1999.90;999.90;;;15.20;99.90;;;;;;5104540;28;20032;-66
2023/09/27 01:13:33;;;;;;;1999.90;999.90;;;15.20;99.90;;;;;;5101900;28;20099;-77
2023/09/27 01:15:58;;;;;;;1999.90;999.90;;;15.20;99.90;;;;;;5105922;28;20016;-66
2023/09/27 01:18:27;;;;;;;1999.90;999.90;;;15.20;99.90;;;;;;5107338;28;20038;-66
2023/09/27 01:20:53;;;;;;;1999.90;999.90;;;15.20;99.90;;;;;;5085134;28;20376;-77
2023/09/27 01:23:19;;;;;;;1999.90;999.90;;;15.20;99.90;;;;;;5108815;28;20028;-66
2023/09/27 01:25:48;;;;;;;1999.90;999.90;;;15.20;99.90;;;;;;5113919;28;20055;-66
2023/09/27 01:28:14;;;;;;;1999.90;999.90;;;15.20;99.90;;;;;;5110760;28;20778;-66
2023/09/27 01:30:40;;;;;;;1999.90;999.90;;;15.20;99.90;;;;;;5104239;28;20134;-66
2023/09/27 01:33:08;;;;;;;1999.90;999.90;;;15.20;99.90;;;;;;5109809;28;20036;-66
2023/09/27 01:35:44;;;;;;;1999.90;999.90;;;15.20;99.90;;;;;;5110067;28;20031;-66
2023/09/27 01:38:11;;;;;;;1999.90;999.90;;;15.20;99.90;;;;;;5112651;28;20054;-66
2023/09/27 01:40:43;;;;;;;1999.90;999.90;;;15.20;99.90;;;;;;5105497;28;20052;-67
2023/09/27 01:43:09;;;;;;;1999.90;999.90;;;15.20;99.90;;;;;;5105452;28;20032;-66
2023/09/27 01:45:35;;;;;;;1999.90;999.90;;;15.20;99.90;;;;;;5100695;28;20027;-66
2023/09/27 01:48:02;;;;;;;1999.90;999.90;;;15.20;99.90;;;;;;5101305;28;20430;-66
2023/09/27 01:50:30;;;;;;;1999.90;999.90;;;15.20;99.90;;;;;;5105334;28;20043;-66
2023/09/27 01:52:56;;;;;;;1999.90;999.90;;;15.20;99.90;;;;;;5105445;28;20037;-77
2023/09/27 01:55:23;;;;;;;1999.90;999.90;;;15.20;99.90;;;;;;5100642;28;20024;-66
2023/09/27 01:57:49;;;;;;;1999.90;999.90;;;15.20;99.90;;;;;;5107485;28;20032;-66
2023/09/27 02:00:18;;;;;;;1999.90;999.90;;;15.10;99.90;;;;;;5096091;28;20437;-66
2023/09/27 02:02:48;;;;;;;1999.90;999.90;;;15.00;99.90;;;;;;5099103;28;20034;-67
2023/09/27 02:05:14;;;;;;;1999.90;999.90;;;14.90;99.90;;;;;;5103988;28;20023;-66
2023/09/27 02:07:41;;;;;;;1999.90;999.90;;;14.90;99.90;;;;;;5110666;28;20085;-66
2023/09/27 02:10:08;;;;;;;1999.90;999.90;;;14.80;99.90;;;;;;5096803;28;20036;-67
2023/09/27 02:12:34;;;;;;;1999.90;999.90;;;14.80;99.90;;;;;;5103940;28;20446;-66
2023/09/27 02:15:00;;;;;;;1999.90;999.90;;;14.80;99.90;;;;;;5097171;28;20085;-66
2023/09/27 02:17:26;;;;;;;1999.90;999.90;;;14.80;99.90;;;;;;5096416;28;20109;-66
2023/09/27 02:19:52;;;;;;;1999.90;999.90;;;14.80;99.90;;;;;;5106938;28;20054;-67
2023/09/27 02:22:18;;;;;;;1999.90;999.90;;;14.80;99.90;;;;;;5086105;28;20114;-67
2023/09/27 02:24:44;;;;;;;1999.90;999.90;;;14.80;99.90;;;;;;5105170;28;20024;-67
2023/09/27 02:27:10;;;;;;;1999.90;999.90;;;14.80;99.90;;;;;;5106724;28;20039;-67
2023/09/27 02:29:37;;;;;;;1999.90;999.90;;;14.70;99.90;;;;;;5108913;28;20549;-66
2023/09/27 02:32:04;;;;;;;;;;;14.70;99.90;;;;;;5115939;28;20035;-67
2023/09/27 02:34:29;;;;;;;1999.90;999.90;;;14.70;99.90;;;;;;5092069;28;19994;-66
2023/09/27 02:36:55;;;;;;;1999.90;999.90;;;14.70;99.90;;;;;;5103541;28;20116;-67
2023/09/27 02:39:22;;;;;;;1999.90;999.90;;;14.70;99.90;;;;;;5103871;27;20080;-66
2023/09/27 02:41:48;;;;;;;1999.90;999.90;;;14.70;99.90;;;;;;5113365;27;20457;-66
2023/09/27 02:44:14;;;;;;;1999.90;999.90;;;14.70;99.90;;;;;;5108764;28;20134;-78
2023/09/27 02:46:40;;;;;;;1999.90;999.90;;;14.70;99.90;;;;;;5110136;28;20090;-67
2023/09/27 02:49:06;;;;;;;1999.90;999.90;;;14.60;99.90;;;;;;5110735;28;20059;-66
2023/09/27 02:51:32;;;;;;;1999.90;999.90;;;14.50;99.90;;;;;;5101822;28;20016;-66
2023/09/27 02:53:58;;;;;;;1999.90;999.90;;;14.40;99.90;;;;;;5086922;28;20016;-66
2023/09/27 02:56:23;;;;;;;1999.90;999.90;;;14.30;99.90;;;;;;5105374;28;20028;-66
2023/09/27 02:58:49;;;;;;;1999.90;999.90;;;14.30;99.90;;;;;;5103720;28;20268;-66
2023/09/27 03:01:15;;;;;;;1999.90;999.90;;;14.20;99.90;;;;;;5103887;28;20466;-78
2023/09/27 03:03:41;;;;;;;1999.90;999.90;;;14.20;99.90;;;;;;5109157;28;20024;-66
2023/09/27 03:06:13;;;;;;;1999.90;999.90;;;14.10;99.90;;;;;;5088508;28;20085;-66
2023/09/27 03:08:39;;;;;;;1999.90;999.90;;;14.10;99.90;;;;;;5104100;28;20302;-66
2023/09/27 03:11:06;;;;;;;1999.90;999.90;;;14.00;99.90;;;;;;5108565;27;20360;-66
2023/09/27 03:13:36;;;;;;;1999.90;999.90;;;14.00;99.90;;;;;;5107093;27;20016;-66
2023/09/27 03:16:02;;;;;;;1999.90;999.90;;;14.00;99.90;;;;;;5099233;28;20023;-66
2023/09/27 03:18:28;;;;;;;1999.90;999.90;;;14.00;99.90;;;;;;5099394;28;20027;-67
2023/09/27 03:20:54;;;;;;;1999.90;999.90;;;14.00;99.90;;;;;;5102745;28;20044;-66
2023/09/27 03:23:19;;;;;;;1999.90;999.90;;;14.00;99.90;;;;;;5098914;28;20034;-66
2023/09/27 03:25:48;;;;;;;1999.90;999.90;;;14.00;99.90;;;;;;5107941;28;20050;-66
2023/09/27 03:28:14;;;;;;;1999.90;999.90;;;13.90;99.90;;;;;;5089563;28;20016;-66
2023/09/27 03:30:40;;;;;;;1999.90;999.90;;;13.90;99.90;;;;;;5100489;28;20154;-66
2023/09/27 03:33:06;;;;;;;1999.90;999.90;;;14.00;99.90;;;;;;5101714;28;20023;-66
2023/09/27 03:35:32;;;;;;;1999.90;999.90;;;14.00;99.90;;;;;;5095305;28;20032;-66
2023/09/27 03:37:58;;;;;;;1999.90;999.90;;;14.00;99.90;;;;;;5096417;28;20059;-66
2023/09/27 03:40:24;;;;;;;1999.90;999.90;;;14.10;99.90;;;;;;5104288;28;20406;-66
2023/09/27 03:42:50;;;;;;;1999.90;999.90;;;14.10;99.90;;;;;;5109934;28;20276;-66
2023/09/27 03:45:16;;;;;;;1999.90;999.90;;;14.00;99.90;;;;;;5113299;28;20280;-67
2023/09/27 03:47:44;;;;;;;1999.90;999.90;;;14.00;99.90;;;;;;5099358;28;20034;-66
2023/09/27 03:50:12;;;;;;;1999.90;999.90;;;14.00;99.90;;;;;;5100930;28;20331;-66
2023/09/27 03:52:41;;;;;;;1999.90;999.90;;;14.00;99.90;;;;;;5106307;28;20043;-67
2023/09/27 03:55:11;;;;;;;1999.90;999.90;;;14.10;99.90;;;;;;5076477;28;20431;-66
2023/09/27 03:57:37;;;;;;;1999.90;999.90;;;14.10;99.90;;;;;;5110639;28;20031;-66
2023/09/27 04:00:12;;;;;;;1999.90;999.90;;;14.10;99.90;;;;;;5099265;28;20024;-77
2023/09/27 04:02:38;;;;;;;1999.90;999.90;;;14.10;99.90;;;;;;5106993;28;20028;-66
2023/09/27 04:05:05;;;;;;;1999.90;999.90;;;14.20;99.90;;;;;;5100668;28;20034;-66
2023/09/27 04:07:30;;;;;;;1999.90;999.90;;;14.20;99.90;;;;;;5094908;28;20028;-66
2023/09/27 04:09:56;;;;;;;1999.90;999.90;;;14.20;99.90;;;;;;5097046;28;20036;-66
2023/09/27 04:12:22;;;;;;;1999.90;999.90;;;14.20;99.90;;;;;;5105312;28;20319;-66
2023/09/27 04:14:48;;;;;;;1999.90;999.90;;;14.10;99.90;;;;;;5097166;28;20040;-66
2023/09/27 04:17:13;;;;;;;1999.90;999.90;;;14.10;99.90;;;;;;5101239;28;20034;-66
2023/09/27 04:19:39;;;;;;;1999.90;999.90;;;14.10;99.90;;;;;;5101804;28;20078;-66
2023/09/27 04:22:05;;;;;;;1999.90;999.90;;;14.20;99.90;;;;;;5099539;28;20032;-66
2023/09/27 04:24:31;;;;;;;1999.90;999.90;;;14.10;99.90;;;;;;5098050;28;20583;-78
2023/09/27 04:26:58;;;;;;;1999.90;999.90;;;14.00;99.90;;;;;;5071363;28;20024;-66
2023/09/27 04:29:24;;;;;;;1999.90;999.90;;;14.00;99.90;;;;;;5105019;28;20477;-66
2023/09/27 04:31:50;;;;;;;1999.90;999.90;;;14.00;99.90;;;;;;5111924;28;20102;-66
2023/09/27 04:34:17;;;;;;;1999.90;999.90;;;13.90;99.90;;;;;;5107006;28;20301;-78
2023/09/27 04:36:44;;;;;;;1999.90;999.90;;;13.90;99.90;;;;;;5112699;28;20169;-66
2023/09/27 04:39:13;;;;;;;1999.90;999.90;;;13.90;99.90;;;;;;5097139;28;20111;-66
2023/09/27 04:41:39;;;;;;;1999.90;999.90;;;13.80;99.90;;;;;;5108390;28;20084;-66
2023/09/27 04:44:05;;;;;;;1999.90;999.90;;;13.80;99.90;;;;;;5094945;28;20032;-65
2023/09/27 04:46:32;;;;;;;1999.90;999.90;;;13.80;99.90;;;;;;5097905;28;20176;-66
2023/09/27 04:48:58;;;;;;;1999.90;999.90;;;13.80;99.90;;;;;;5106542;28;20058;-66
2023/09/27 04:51:24;;;;;;;1999.90;999.90;;;13.80;99.90;;;;;;5100876;28;20024;-67
2023/09/27 04:53:50;;;;;;;1999.90;999.90;;;13.80;99.90;;;;;;5104462;28;20031;-66
2023/09/27 04:56:16;;;;;;;1999.90;999.90;;;13.70;99.90;;;;;;5108064;28;20115;-66
2023/09/27 04:58:42;;;;;;;1999.90;999.90;;;13.70;99.90;;;;;;5112829;28;20069;-74
2023/09/27 05:01:09;;;;;;;1999.90;999.90;;;13.70;99.90;;;;;;5104671;28;20323;-66
2023/09/27 05:03:35;;;;;;;1999.90;999.90;;;13.70;99.90;;;;;;5103752;27;20118;-65
2023/09/27 05:06:01;;;;;;;1999.90;999.90;;;13.70;99.90;;;;;;5097555;28;20024;-66
2023/09/27 05:08:27;;;;;;;1999.90;999.90;;;13.60;99.90;;;;;;5103773;28;20028;-66
2023/09/27 05:10:53;;;;;;;1999.90;999.90;;;13.70;99.90;;;;;;5106452;28;20048;-66
2023/09/27 05:13:21;;;;;;;1999.90;999.90;;;13.70;99.90;;;;;;5104548;27;20342;-66
2023/09/27 05:15:48;;;;;;;1999.90;999.90;;;13.70;99.90;;;;;;5104327;28;20268;-73
2023/09/27 05:18:14;;;;;;;1999.90;999.90;;;13.70;99.90;;;;;;5099234;27;20032;-66
2023/09/27 05:20:40;;;;;;;1999.90;999.90;;;13.70;99.90;;;;;;5107544;28;20036;-66
2023/09/27 05:23:05;;;;;;;1999.90;999.90;;;13.70;99.90;;;;;;5106346;28;20051;-65
2023/09/27 05:25:31;;;;;;;1999.90;999.90;;;13.60;99.90;;;;;;5099022;28;20442;-76
2023/09/27 05:27:57;;;;;;;1999.90;999.90;;;13.50;99.90;;;;;;5098657;28;20051;-66
2023/09/27 05:30:24;;;;;;;1999.90;999.90;;;13.40;99.90;;;;;;5109909;28;20314;-66
2023/09/27 05:32:49;;;;;;;1999.90;999.90;;;13.40;99.90;;;;;;5087652;28;20085;-66
2023/09/27 05:35:15;;;;;;;1999.90;999.90;;;13.40;99.90;;;;;;5110202;28;20150;-66
2023/09/27 05:37:44;;;;;;;1999.90;999.90;;;13.40;99.90;;;;;;5108575;28;20042;-66
2023/09/27 05:40:11;;;;;;;1999.90;999.90;;;13.40;99.90;;;;;;5090698;28;20397;-75
2023/09/27 05:42:41;;;;;;;1999.90;999.90;;;13.40;99.90;;;;;;5086353;28;20028;-67
2023/09/27 05:45:13;;;;;;;1999.90;999.90;;;13.40;99.90;;;;;;5106783;28;20043;-66
2023/09/27 05:47:39;;;;;;;1999.90;999.90;;;13.40;99.90;;;;;;5111934;28;20016;-66
2023/09/27 05:50:12;;;;;;;1999.90;999.90;;;13.40;99.90;;;;;;5112869;28;20156;-78
2023/09/27 05:52:39;;;;;;;1999.90;999.90;;;13.40;99.90;;;;;;5105457;28;20024;-66
2023/09/27 05:55:05;;;;;;;1999.90;999.90;;;13.40;99.90;;;;;;5108150;28;20033;-77
2023/09/27 05:57:34;;;;;;;1999.90;999.90;;;13.40;99.90;;;;;;5110813;28;20028;-66
2023/09/27 06:00:00;;;;;;;1999.90;999.90;;;13.40;99.90;;;;;;5104267;28;20028;-66
2023/09/27 06:02:31;;;;;;;1999.90;999.90;;;13.40;99.90;;;;;;5098056;27;20093;-66
2023/09/27 06:04:58;;;;;;;1999.90;999.90;;;13.50;99.90;;;;;;5103592;27;20280;-70
2023/09/27 06:07:25;;;;;;;1999.90;999.90;;;13.50;99.90;;;;;;5113021;27;20080;-66
2023/09/27 06:09:51;;;;;;;1999.90;999.90;;;13.60;99.90;;;;;;5086490;28;20415;-66
2023/09/27 06:12:18;;;;;;;1999.90;999.90;;;13.60;99.90;;;;;;5104567;27;20111;-65
2023/09/27 06:14:43;;;;;;;1999.90;999.90;;;13.60;99.90;;;;;;5108866;28;20028;-66
2023/09/27 06:17:10;;;;;;;1999.90;999.90;;;13.60;99.90;;;;;;5104734;27;20024;-67
2023/09/27 06:19:37;;;;;;;1999.90;999.90;;;13.60;99.90;;;;;;5089569;27;20493;-66
2023/09/27 06:22:06;;;;;;;1999.90;999.90;;;13.60;99.90;;;;;;5107891;28;20036;-66
2023/09/27 06:24:32;;;;;;;1999.90;999.90;;;13.70;99.90;;;;;;5107388;27;20031;-66
2023/09/27 06:26:59;;;;;;;1999.90;999.90;;;13.70;99.90;;;;;;5108078;27;20043;-65
2023/09/27 06:29:25;;;;;;;1999.90;999.90;;;13.60;99.90;;;;;;5106531;27;20295;-65
2023/09/27 06:31:52;;;;;;;1999.90;999.90;;;13.60;99.90;;;;;;5108554;27;20042;-68
2023/09/27 06:34:18;;;;;;;1999.90;999.90;;;13.60;99.90;;;;;;5101924;28;20128;-66
2023/09/27 06:36:48;;;;;;;1999.90;999.90;;;13.70;99.90;;;;;;5103339;27;20433;-66
2023/09/27 06:39:15;;;;;;;1999.90;999.90;;;13.60;99.90;;;;;;5101720;27;20032;-66
2023/09/27 06:41:41;;;;;;;;;;;13.70;99.90;;;;;;5088892;28;20024;-66
2023/09/27 06:44:08;;;;;;;1999.90;999.90;;;13.70;99.90;;;;;;5115765;27;19943;-66
2023/09/27 06:46:34;;;;;;;;;;;13.70;99.90;;;;;;5112903;27;20024;-66
2023/09/27 06:49:00;;;;;;;;;;;13.70;99.90;;;;;;5104253;27;20238;-78
2023/09/27 06:51:26;;;;;;;1999.90;999.90;;;13.70;99.90;;;;;;5110503;27;19954;-66
2023/09/27 06:53:52;;;;;;;1999.90;999.90;;;13.80;99.90;;;;;;5106027;27;20047;-66
2023/09/27 06:56:18;;;;;;;1999.90;999.90;;;13.80;99.90;;;;;;5102432;28;20488;-66
2023/09/27 06:58:44;;;;;;;1999.90;999.90;;;13.80;99.90;;;;;;5105674;28;20028;-66
2023/09/27 07:01:11;;;;;;;1999.90;999.90;;;13.90;99.90;;;;;;5105899;28;20035;-78
2023/09/27 07:03:37;;;;;;;1999.90;999.90;;;14.00;99.90;;;;;;5092890;28;20069;-66
2023/09/27 07:06:03;;;;;;;1999.90;999.90;;;14.10;99.90;;;;;;5106331;28;20019;-66
2023/09/27 07:08:29;;;;;;;1999.90;999.90;;;14.20;99.90;;;;;;5098802;28;20016;-66
2023/09/27 07:11:07;;;;;;;1999.90;999.90;;;14.20;99.90;;;;;;5095500;28;20160;-66
2023/09/27 07:13:34;;;;;;;1999.90;999.90;;;14.40;99.90;;;;;;5094967;28;20098;-78
2023/09/27 07:16:02;;;;;;;1999.90;999.90;;;14.50;99.90;;;;;;5103278;28;20024;-67
2023/09/27 07:18:27;;;;;;;1999.90;999.90;;;14.60;99.90;;;;;;5095056;28;20024;-67
2023/09/27 07:20:54;;;;;;;1999.90;999.90;;;14.70;99.90;;;;;;5104397;28;20023;-76
2023/09/27 07:23:21;;;;;;;1999.90;999.90;;;14.90;99.90;;;;;;5100359;28;20424;-66
2023/09/27 07:25:47;;;;;;;1999.90;999.90;;;15.10;99.90;;;;;;5102106;28;20088;-66
2023/09/27 07:28:16;;;;;;;1999.90;999.90;;;15.30;99.90;;;;;;5099421;28;20024;-66
2023/09/27 07:30:42;;;;;;;1999.90;999.90;;;15.50;99.90;;;;;;5098587;28;20116;-79
2023/09/27 07:33:11;;;;;;;1999.90;999.90;;;15.70;99.90;;;;;;5099724;28;20411;-66
2023/09/27 07:35:42;;;;;;;1999.90;999.90;;;15.80;99.90;;;;;;5094078;28;20031;-74
2023/09/27 07:38:10;;;;;;;1999.90;999.90;;;15.80;99.90;;;;;;5095034;28;20069;-78
2023/09/27 07:40:36;;;;;;;1999.90;999.90;;;15.90;99.90;;;;;;5102578;28;20479;-67
2023/09/27 07:43:02;;;;;;;1999.90;999.90;;;16.00;99.90;;;;;;5111275;28;20035;-67
2023/09/27 07:45:32;;;;;;;1999.90;999.90;;;16.10;99.90;;;;;;5109277;28;20027;-67
2023/09/27 07:47:58;;;;;;;1999.90;999.90;;;16.10;99.90;;;;;;5093589;28;20054;-67
2023/09/27 07:50:27;;;;;;;1999.90;999.90;;;16.20;99.90;;;;;;5102722;28;20036;-67
2023/09/27 07:52:58;;;;;;;1999.90;999.90;;;16.30;99.90;;;;;;5086899;28;20111;-67
2023/09/27 07:55:24;;;;;;;1999.90;999.90;;;16.50;99.90;;;;;;5102323;28;20020;-67
2023/09/27 07:57:52;;;;;;;1999.90;999.90;;;16.70;99.90;;;;;;5111171;28;20028;-67
2023/09/27 08:00:23;;;;;;;1999.90;999.90;;;16.90;99.90;;;;;;5107696;28;20357;-67
2023/09/27 08:02:50;;;;;;;1999.90;999.90;;;17.30;99.90;;;;;;5107305;28;20052;-68
2023/09/27 08:05:17;;;;;;;1999.90;999.90;;;17.50;99.90;;;;;;5089498;28;20035;-67
2023/09/27 08:07:46;;;;;;;1999.90;999.90;;;17.80;99.90;;;;;;5095193;28;20072;-67
2023/09/27 08:10:13;;;;;;;1999.90;999.90;;;17.90;99.90;;;;;;5113596;28;20046;-77
2023/09/27 08:12:39;;;;;;;1999.90;999.90;;;18.00;99.90;;;;;;5105268;28;20031;-67
2023/09/27 08:15:06;;;;;;;1999.90;999.90;;;18.20;99.90;;;;;;5105337;28;20040;-77
2023/09/27 08:17:33;;;;;;;1999.90;999.90;;;18.50;99.90;;;;;;5114103;28;20434;-67
2023/09/27 08:20:12;;;;;;;1999.90;999.90;;;18.60;99.90;;;;;;5110285;28;20031;-67
2023/09/27 08:22:39;;;;;;;1999.90;999.90;;;18.70;99.90;;;;;;5100615;28;20486;-67
2023/09/27 08:25:14;;;;;;;1999.90;999.90;;;19.00;99.90;;;;;;5113520;28;20043;-78
2023/09/27 08:27:41;;;;;;;1999.90;999.90;;;19.10;99.90;;;;;;5107830;28;20020;-67
2023/09/27 08:30:09;;;;;;;1999.90;999.90;;;19.20;99.90;;;;;;5104471;28;20051;-68
2023/09/27 08:32:35;;;;;;;1999.90;999.90;;;19.10;99.90;;;;;;5106303;28;20027;-74
2023/09/27 08:35:05;;;;;;;1999.90;999.90;;;19.10;99.90;;;;;;5109993;28;20292;-67
2023/09/27 08:37:31;;;;;;;1999.90;999.90;;;19.00;99.90;;;;;;5097966;28;20054;-67
2023/09/27 08:39:57;;;;;;;1999.90;999.90;;;18.80;99.90;;;;;;5106100;28;20330;-67
2023/09/27 08:42:24;;;;;;;1999.90;999.90;;;18.60;99.90;;;;;;5101233;28;20024;-67
2023/09/27 08:44:52;;;;;;;1999.90;999.90;;;18.50;99.90;;;;;;5107104;28;20114;-67
2023/09/27 08:47:19;;;;;;;1999.90;999.90;;;18.40;99.90;;;;;;5101320;28;20028;-68
2023/09/27 08:49:49;;;;;;;;;;;18.30;99.90;;;;;;5097787;28;20090;-78
2023/09/27 08:52:16;;;;;;;1999.90;999.90;;;18.30;99.90;;;;;;5102522;28;19908;-67
2023/09/27 08:54:41;;;;;;;;;;;18.20;99.90;;;;;;5099495;28;20024;-67
2023/09/27 08:57:08;;;;;;;1999.90;999.90;;;18.10;99.90;;;;;;5104295;28;19911;-67
2023/09/27 08:59:35;;;;;;;1999.90;999.90;;;18.10;99.90;;;;;;5098032;28;20370;-67
2023/09/27 09:02:05;;;;;;;1999.90;999.90;;;18.10;99.90;;;;;;5108354;28;20032;-67
2023/09/27 09:04:35;;;;;;;1999.90;999.90;;;18.10;99.90;;;;;;5104756;28;20437;-67
2023/09/27 09:07:06;;;;;;;1999.90;999.90;;;18.10;99.90;;;;;;5102548;28;20058;-67
2023/09/27 09:09:33;;;;;;;1999.90;999.90;;;18.10;99.90;;;;;;5101522;27;20132;-68
2023/09/27 09:12:08;;;;;;;1999.90;999.90;;;18.00;99.90;;;;;;5101907;28;20060;-67
2023/09/27 09:14:43;;;;;;;1999.90;999.90;;;18.00;99.90;;;;;;5089530;28;20043;-67
2023/09/27 09:17:17;;;;;;;1999.90;999.90;;;18.10;99.90;;;;;;5103350;28;20020;-66
2023/09/27 09:19:43;;;;;;;1999.90;999.90;;;18.10;99.90;;;;;;5097891;28;20024;-67
2023/09/27 09:22:11;;;;;;;1999.90;999.90;;;18.20;99.90;;;;;;5100860;28;20024;-67
2023/09/27 09:24:42;;;;;;;1999.90;999.90;;;18.20;99.90;;;;;;5084306;28;20040;-66
2023/09/27 09:27:10;;;;;;;1999.90;999.90;;;18.40;99.90;;;;;;5105506;28;20107;-67
2023/09/27 09:29:50;;;;;;;1999.90;999.90;;;18.40;99.90;;;;;;5101225;28;20028;-67
2023/09/27 09:32:21;;;;;;;1999.90;999.90;;;18.40;99.90;;;;;;5102200;28;20078;-67
2023/09/27 09:34:49;;;;;;;1999.90;999.90;;;18.40;99.90;;;;;;5097102;28;20024;-67
2023/09/27 09:37:20;;;;;;;1999.90;999.90;;;18.40;99.90;;;;;;5098029;28;20016;-66
2023/09/27 09:39:47;;;;;;;1999.90;999.90;;;18.50;99.90;;;;;;5097772;28;20047;-67
2023/09/27 09:42:28;;;;;;;1999.90;999.90;;;18.50;99.90;;;;;;5098731;28;20076;-67
2023/09/27 09:45:10;;;;;;;1999.90;999.90;;;18.50;99.90;;;;;;5102121;28;20131;-67
2023/09/27 09:47:41;;;;;;;1999.90;999.90;;;18.60;99.90;;;;;;5097835;28;20042;-68
2023/09/27 09:50:16;;;;;;;1999.90;999.90;;;18.60;99.90;;;;;;5077870;28;20087;-67
2023/09/27 09:52:49;;;;;;;1999.90;999.90;;;18.70;99.90;;;;;;5077352;28;20031;-67
2023/09/27 09:55:20;;;;;;;1999.90;999.90;;;18.70;99.90;;;;;;5077365;28;20037;-67
2023/09/27 09:57:46;;;;;;;1999.90;999.90;;;18.70;99.90;;;;;;5087802;28;20016;-66
2023/09/27 10:00:17;;;;;;;;;;;18.70;99.90;;;;;;5095621;28;20111;-84
2023/09/27 10:02:49;;;;;;;1999.90;999.90;;;18.70;99.90;;;;;;5095253;28;19969;-67
2023/09/27 10:05:21;;;;;;;1999.90;999.90;;;18.80;99.90;;;;;;5085972;28;20029;-83
2023/09/27 10:07:48;;;;;;;1999.90;999.90;;;18.80;99.90;;;;;;5082646;28;20414;-79
2023/09/27 10:10:18;;;;;;;1999.90;999.90;;;18.80;99.90;;;;;;5080007;28;20028;-85
2023/09/27 10:12:46;;;;;;;1999.90;999.90;;;18.80;99.90;;;;;;5075974;28;20035;-67
2023/09/27 10:15:17;;;;;;;1999.90;999.90;;;18.90;99.90;;;;;;5084786;28;20131;-80
2023/09/27 10:17:43;;;;;;;1999.90;999.90;;;19.00;99.90;;;;;;5080901;28;20021;-80
2023/09/27 10:20:14;;;;;;;1999.90;999.90;;;19.00;99.90;;;;;;5084415;28;20028;-67
2023/09/27 10:22:47;;;;;;;1999.90;999.90;;;19.10;99.90;;;;;;5078194;28;20041;-79
2023/09/27 10:25:32;;;;;;;1999.90;999.90;;;19.20;99.90;;;;;;5081873;28;20063;-77
2023/09/27 10:28:11;;;;;;;1999.90;999.90;;;19.30;99.90;;;;;;5081344;28;20288;-67
2023/09/27 10:30:40;;;;;;;1999.90;999.90;;;19.30;99.90;;;;;;5085522;28;20033;-66
2023/09/27 10:33:15;;;;;;;1999.90;999.90;;;19.30;99.90;;;;;;5092985;28;20024;-66
2023/09/27 10:35:43;;;;;;;1999.90;999.90;;;19.30;99.90;;;;;;5088604;28;20115;-67
2023/09/27 10:38:10;;;;;;;1999.90;999.90;;;19.30;99.90;;;;;;5090762;28;20031;-67
2023/09/27 10:40:46;;;;;;;1999.90;999.90;;;19.30;99.90;;;;;;5075700;28;20036;-79
2023/09/27 10:43:34;;;;;;;1999.90;999.90;;;19.20;99.90;;;;;;5080743;28;20111;-67
2023/09/27 10:46:04;;;;;;;1999.90;999.90;;;19.20;99.90;;;;;;5077319;28;20025;-67
2023/09/27 10:48:37;;;;;;;1999.90;999.90;;;19.20;99.90;;;;;;5081905;28;20024;-67
2023/09/27 10:51:03;;;;;;;1999.90;999.90;;;19.20;99.90;;;;;;5089027;28;20335;-67
2023/09/27 10:53:32;;;;;;;1999.90;999.90;;;19.20;99.90;;;;;;5082908;28;20028;-68
2023/09/27 10:55:58;;;;;;;1999.90;999.90;;;19.20;99.90;;;;;;5089828;28;20035;-67
2023/09/27 10:58:24;;;;;;;1999.90;999.90;;;19.20;99.90;;;;;;5085879;28;20024;-66
2023/09/27 11:00:56;;;;;;;1999.90;999.90;;;19.20;99.90;;;;;;5083648;28;20109;-67
2023/09/27 11:03:25;;;;;;;1999.90;999.90;;;19.20;99.90;;;;;;5087661;28;20032;-68
2023/09/27 11:05:51;;;;;;;1999.90;999.90;;;19.20;99.90;;;;;;5084669;28;20111;-67
2023/09/27 11:08:24;;;;;;;1999.90;999.90;;;19.30;99.90;;;;;;5082912;28;20124;-67
2023/09/27 11:10:52;;;;;;;1999.90;999.90;;;19.40;99.90;;;;;;5094306;28;20016;-67
2023/09/27 11:13:21;;;;;;;1999.90;999.90;;;19.40;99.90;;;;;;5083762;28;20430;-67
2023/09/27 11:15:46;;;;;;;1999.90;999.90;;;19.50;99.90;;;;;;5075232;28;20078;-67
2023/09/27 11:18:12;;;;;;;1999.90;999.90;;;19.60;99.90;;;;;;5079837;28;20032;-67
2023/09/27 11:20:42;;;;;;;1999.90;999.90;;;19.80;99.90;;;;;;5092112;28;20090;-67
2023/09/27 11:23:07;;;;;;;1999.90;999.90;;;19.90;99.90;;;;;;5085316;28;20042;-67
2023/09/27 11:25:36;;;;;;;1999.90;999.90;;;20.10;99.90;;;;;;5093139;28;20024;-79
2023/09/27 11:28:02;;;;;;;1999.90;999.90;;;20.30;99.90;;;;;;5083343;28;20348;-67
2023/09/27 11:30:30;;;;;;;1999.90;999.90;;;20.50;99.90;;;;;;5079720;28;20412;-67
2023/09/27 11:33:05;;;;;;;1999.90;999.90;;;20.60;99.90;;;;;;5087118;28;20035;-67
2023/09/27 11:35:31;;;;;;;1999.90;999.90;;;20.80;99.90;;;;;;5092961;28;20362;-67
2023/09/27 11:38:11;;;;;;;1999.90;999.90;;;20.80;99.90;;;;;;5088327;28;20033;-66
2023/09/27 11:40:42;;;;;;;1999.90;999.90;;;21.00;99.90;;;;;;5075129;28;20033;-69
2023/09/27 11:43:08;;;;;;;1999.90;999.90;;;21.10;99.90;;;;;;5084285;28;20027;-66
2023/09/27 11:45:45;;;;;;;1999.90;999.90;;;21.20;99.90;;;;;;5084228;28;20088;-67
2023/09/27 11:48:11;;;;;;;1999.90;999.90;;;21.30;99.90;;;;;;5077286;28;20036;-67
2023/09/27 11:50:37;;;;;;;1999.90;999.90;;;21.50;99.90;;;;;;5100156;28;20076;-67
2023/09/27 11:53:04;;;;;;;1999.90;999.90;;;21.70;99.90;;;;;;5088227;28;20099;-67
2023/09/27 11:55:30;;;;;;;1999.90;999.90;;;21.80;99.90;;;;;;5108597;28;20371;-68
2023/09/27 11:57:59;;;;;;;1999.90;999.90;;;21.90;99.90;;;;;;5102704;28;20085;-68
2023/09/27 12:00:25;;;;;;;1999.90;999.90;;;22.10;99.90;;;;;;5084338;28;20643;-67
2023/09/27 12:02:54;;;;;;;1999.90;999.90;;;22.20;99.90;;;;;;5101578;28;20419;-67
2023/09/27 12:05:20;;;;;;;1999.90;999.90;;;22.40;99.90;;;;;;5095303;28;20117;-67